sensor_id;sensor_type;location;lat;lon;timestamp;P1;durP1;ratioP1;P2;durP2;ratioP2
25946;SDS011;13745;51.470;9.894;2022-11-20T00:02:06;14.85;;;8.50;;
25946;SDS011;13745;51.470;9.894;2022-11-20T00:04:51;16.00;;;8.85;;
25946;SDS011;13745;51.470;9.894;2022-11-20T00:07:37;15.13;;;8.90;;
25946;SDS011;13745;51.470;9.894;2022-11-20T00:10:23;15.23;;;8.40;;
25946;SDS011;13745;51.470;9.894;2022-11-20T00:13:09;16.60;;;9.38;;
25946;SDS011;13745;51.470;9.894;2022-11-20T00:15:56;17.27;;;10.20;;
25946;SDS011;13745;51.470;9.894;2022-11-20T00:18:44;19.23;;;9.52;;
25946;SDS011;13745;51.470;9.894;2022-11-20T00:21:30;17.92;;;9.30;;
25946;SDS011;13745;51.470;9.894;2022-11-20T00:24:16;22.15;;;11.10;;
25946;SDS011;13745;51.470;9.894;2022-11-20T00:27:01;17.98;;;9.27;;
25946;SDS011;13745;51.470;9.894;2022-11-20T00:29:47;21.63;;;10.60;;
25946;SDS011;13745;51.470;9.894;2022-11-20T00:32:33;17.60;;;9.05;;
25946;SDS011;13745;51.470;9.894;2022-11-20T00:35:20;18.40;;;10.20;;
25946;SDS011;13745;51.470;9.894;2022-11-20T00:38:06;19.88;;;9.70;;
25946;SDS011;13745;51.470;9.894;2022-11-20T00:40:54;19.58;;;10.05;;
25946;SDS011;13745;51.470;9.894;2022-11-20T00:43:40;20.05;;;9.50;;
25946;SDS011;13745;51.470;9.894;2022-11-20T00:46:27;21.95;;;11.13;;
25946;SDS011;13745;51.470;9.894;2022-11-20T00:49:13;21.40;;;10.77;;
25946;SDS011;13745;51.470;9.894;2022-11-20T00:52:01;20.33;;;10.30;;
25946;SDS011;13745;51.470;9.894;2022-11-20T00:54:47;19.50;;;10.55;;
25946;SDS011;13745;51.470;9.894;2022-11-20T00:57:32;17.90;;;9.40;;
25946;SDS011;13745;51.470;9.894;2022-11-20T01:00:18;18.30;;;9.73;;
25946;SDS011;13745;51.470;9.894;2022-11-20T01:03:04;16.65;;;9.75;;
25946;SDS011;13745;51.470;9.894;2022-11-20T01:05:50;20.75;;;9.82;;
25946;SDS011;13745;51.470;9.894;2022-11-20T01:08:37;17.52;;;9.57;;
25946;SDS011;13745;51.470;9.894;2022-11-20T01:11:25;16.98;;;9.90;;
25946;SDS011;13745;51.470;9.894;2022-11-20T01:14:12;17.30;;;9.85;;
25946;SDS011;13745;51.470;9.894;2022-11-20T01:16:59;19.67;;;10.55;;
25946;SDS011;13745;51.470;9.894;2022-11-20T01:19:47;17.38;;;9.35;;
25946;SDS011;13745;51.470;9.894;2022-11-20T01:22:33;22.25;;;9.68;;
25946;SDS011;13745;51.470;9.894;2022-11-20T01:25:20;18.77;;;10.32;;
25946;SDS011;13745;51.470;9.894;2022-11-20T01:28:06;22.52;;;10.85;;
25946;SDS011;13745;51.470;9.894;2022-11-20T01:30:52;18.80;;;9.30;;
25946;SDS011;13745;51.470;9.894;2022-11-20T01:33:38;16.85;;;9.60;;
25946;SDS011;13745;51.470;9.894;2022-11-20T01:36:25;19.17;;;10.45;;
25946;SDS011;13745;51.470;9.894;2022-11-20T01:39:13;17.13;;;9.32;;
25946;SDS011;13745;51.470;9.894;2022-11-20T01:42:01;16.05;;;9.80;;
25946;SDS011;13745;51.470;9.894;2022-11-20T01:48:25;15.88;;;8.68;;
25946;SDS011;13745;51.470;9.894;2022-11-20T01:51:17;18.42;;;9.60;;
25946;SDS011;13745;51.470;9.894;2022-11-20T01:54:09;16.48;;;9.23;;
25946;SDS011;13745;51.470;9.894;2022-11-20T01:56:59;24.48;;;9.57;;
25946;SDS011;13745;51.470;9.894;2022-11-20T01:59:47;19.10;;;9.30;;
25946;SDS011;13745;51.470;9.894;2022-11-20T02:02:39;17.63;;;9.93;;
25946;SDS011;13745;51.470;9.894;2022-11-20T02:05:28;17.95;;;10.00;;
25946;SDS011;13745;51.470;9.894;2022-11-20T02:08:17;17.35;;;9.32;;
25946;SDS011;13745;51.470;9.894;2022-11-20T02:11:05;17.08;;;9.52;;
25946;SDS011;13745;51.470;9.894;2022-11-20T02:13:51;15.70;;;9.43;;
25946;SDS011;13745;51.470;9.894;2022-11-20T02:16:39;16.48;;;8.35;;
25946;SDS011;13745;51.470;9.894;2022-11-20T02:19:30;18.27;;;9.27;;
25946;SDS011;13745;51.470;9.894;2022-11-20T02:22:17;22.95;;;9.90;;
25946;SDS011;13745;51.470;9.894;2022-11-20T02:25:09;14.90;;;8.32;;
25946;SDS011;13745;51.470;9.894;2022-11-20T02:27:55;15.88;;;9.10;;
25946;SDS011;13745;51.470;9.894;2022-11-20T02:30:41;18.88;;;10.10;;
25946;SDS011;13745;51.470;9.894;2022-11-20T02:33:27;20.77;;;10.73;;
25946;SDS011;13745;51.470;9.894;2022-11-20T02:36:14;19.15;;;10.13;;
25946;SDS011;13745;51.470;9.894;2022-11-20T02:39:01;19.95;;;9.90;;
25946;SDS011;13745;51.470;9.894;2022-11-20T02:41:49;16.75;;;9.48;;
25946;SDS011;13745;51.470;9.894;2022-11-20T02:44:34;18.25;;;10.68;;
25946;SDS011;13745;51.470;9.894;2022-11-20T02:47:20;19.30;;;10.48;;
25946;SDS011;13745;51.470;9.894;2022-11-20T02:50:06;18.92;;;9.85;;
25946;SDS011;13745;51.470;9.894;2022-11-20T02:52:52;19.85;;;9.68;;
25946;SDS011;13745;51.470;9.894;2022-11-20T02:55:38;17.40;;;8.95;;
25946;SDS011;13745;51.470;9.894;2022-11-20T02:58:25;16.65;;;8.60;;
25946;SDS011;13745;51.470;9.894;2022-11-20T03:01:11;19.30;;;9.30;;
25946;SDS011;13745;51.470;9.894;2022-11-20T03:03:57;15.07;;;9.00;;
25946;SDS011;13745;51.470;9.894;2022-11-20T03:06:43;22.98;;;9.88;;
25946;SDS011;13745;51.470;9.894;2022-11-20T03:09:28;16.35;;;9.50;;
25946;SDS011;13745;51.470;9.894;2022-11-20T03:12:14;21.73;;;10.65;;
25946;SDS011;13745;51.470;9.894;2022-11-20T03:15:02;18.88;;;9.57;;
25946;SDS011;13745;51.470;9.894;2022-11-20T03:17:48;22.65;;;10.25;;
25946;SDS011;13745;51.470;9.894;2022-11-20T03:20:34;23.90;;;9.90;;
25946;SDS011;13745;51.470;9.894;2022-11-20T03:23:19;18.52;;;9.45;;
25946;SDS011;13745;51.470;9.894;2022-11-20T03:26:09;18.33;;;9.07;;
25946;SDS011;13745;51.470;9.894;2022-11-20T03:28:58;18.57;;;9.17;;
25946;SDS011;13745;51.470;9.894;2022-11-20T03:31:46;17.10;;;9.10;;
25946;SDS011;13745;51.470;9.894;2022-11-20T03:34:32;21.02;;;9.68;;
25946;SDS011;13745;51.470;9.894;2022-11-20T03:37:17;18.27;;;8.38;;
25946;SDS011;13745;51.470;9.894;2022-11-20T03:40:04;17.55;;;9.88;;
25946;SDS011;13745;51.470;9.894;2022-11-20T03:42:51;17.15;;;9.30;;
25946;SDS011;13745;51.470;9.894;2022-11-20T03:45:36;19.13;;;9.40;;
25946;SDS011;13745;51.470;9.894;2022-11-20T03:48:24;21.98;;;10.95;;
25946;SDS011;13745;51.470;9.894;2022-11-20T03:51:11;17.65;;;9.82;;
25946;SDS011;13745;51.470;9.894;2022-11-20T03:53:58;19.23;;;9.52;;
25946;SDS011;13745;51.470;9.894;2022-11-20T03:56:45;20.40;;;9.68;;
25946;SDS011;13745;51.470;9.894;2022-11-20T03:59:31;17.75;;;9.35;;
25946;SDS011;13745;51.470;9.894;2022-11-20T04:02:16;23.42;;;10.10;;
25946;SDS011;13745;51.470;9.894;2022-11-20T04:05:04;19.83;;;10.38;;
25946;SDS011;13745;51.470;9.894;2022-11-20T04:07:50;20.95;;;10.68;;
25946;SDS011;13745;51.470;9.894;2022-11-20T04:10:36;20.30;;;10.25;;
25946;SDS011;13745;51.470;9.894;2022-11-20T04:13:22;24.30;;;12.40;;
25946;SDS011;13745;51.470;9.894;2022-11-20T04:16:08;23.10;;;11.30;;
25946;SDS011;13745;51.470;9.894;2022-11-20T04:18:55;21.27;;;10.55;;
25946;SDS011;13745;51.470;9.894;2022-11-20T04:21:43;29.60;;;12.40;;
25946;SDS011;13745;51.470;9.894;2022-11-20T04:24:29;29.38;;;12.85;;
25946;SDS011;13745;51.470;9.894;2022-11-20T04:27:15;25.58;;;10.82;;
25946;SDS011;13745;51.470;9.894;2022-11-20T04:30:00;22.77;;;10.90;;
25946;SDS011;13745;51.470;9.894;2022-11-20T04:32:46;33.95;;;13.43;;
25946;SDS011;13745;51.470;9.894;2022-11-20T04:35:33;24.45;;;12.18;;
25946;SDS011;13745;51.470;9.894;2022-11-20T04:38:20;21.90;;;11.63;;
25946;SDS011;13745;51.470;9.894;2022-11-20T04:41:07;21.60;;;10.57;;
25946;SDS011;13745;51.470;9.894;2022-11-20T04:43:57;24.30;;;11.38;;
25946;SDS011;13745;51.470;9.894;2022-11-20T04:46:46;24.90;;;11.52;;
25946;SDS011;13745;51.470;9.894;2022-11-20T04:49:32;25.10;;;11.55;;
25946;SDS011;13745;51.470;9.894;2022-11-20T04:52:18;28.05;;;12.02;;
25946;SDS011;13745;51.470;9.894;2022-11-20T04:55:06;30.85;;;13.90;;
25946;SDS011;13745;51.470;9.894;2022-11-20T04:57:52;28.10;;;12.48;;
25946;SDS011;13745;51.470;9.894;2022-11-20T05:00:37;28.08;;;13.00;;
25946;SDS011;13745;51.470;9.894;2022-11-20T05:03:23;27.17;;;12.30;;
25946;SDS011;13745;51.470;9.894;2022-11-20T05:06:09;30.33;;;13.55;;
25946;SDS011;13745;51.470;9.894;2022-11-20T05:08:56;26.55;;;11.35;;
25946;SDS011;13745;51.470;9.894;2022-11-20T05:11:42;24.33;;;11.25;;
25946;SDS011;13745;51.470;9.894;2022-11-20T05:14:28;23.73;;;11.07;;
25946;SDS011;13745;51.470;9.894;2022-11-20T05:17:14;26.40;;;11.45;;
25946;SDS011;13745;51.470;9.894;2022-11-20T05:20:00;21.08;;;10.27;;
25946;SDS011;13745;51.470;9.894;2022-11-20T05:22:46;17.05;;;9.38;;
25946;SDS011;13745;51.470;9.894;2022-11-20T05:25:32;22.83;;;10.75;;
25946;SDS011;13745;51.470;9.894;2022-11-20T05:28:19;21.15;;;9.98;;
25946;SDS011;13745;51.470;9.894;2022-11-20T05:31:05;22.13;;;11.25;;
25946;SDS011;13745;51.470;9.894;2022-11-20T05:33:52;18.30;;;9.63;;
25946;SDS011;13745;51.470;9.894;2022-11-20T05:36:38;23.65;;;10.02;;
25946;SDS011;13745;51.470;9.894;2022-11-20T05:39:23;22.08;;;10.57;;
25946;SDS011;13745;51.470;9.894;2022-11-20T05:42:09;21.80;;;10.43;;
25946;SDS011;13745;51.470;9.894;2022-11-20T05:45:14;23.40;;;10.48;;
25946;SDS011;13745;51.470;9.894;2022-11-20T05:48:00;23.02;;;10.65;;
25946;SDS011;13745;51.470;9.894;2022-11-20T05:50:46;24.55;;;11.27;;
25946;SDS011;13745;51.470;9.894;2022-11-20T05:53:32;19.08;;;9.70;;
25946;SDS011;13745;51.470;9.894;2022-11-20T05:56:19;23.95;;;11.15;;
25946;SDS011;13745;51.470;9.894;2022-11-20T05:59:06;24.58;;;10.70;;
25946;SDS011;13745;51.470;9.894;2022-11-20T06:01:53;25.20;;;11.07;;
25946;SDS011;13745;51.470;9.894;2022-11-20T06:04:39;22.23;;;10.27;;
25946;SDS011;13745;51.470;9.894;2022-11-20T06:07:25;22.25;;;10.25;;
25946;SDS011;13745;51.470;9.894;2022-11-20T06:10:10;22.73;;;11.25;;
25946;SDS011;13745;51.470;9.894;2022-11-20T06:12:57;26.90;;;12.30;;
25946;SDS011;13745;51.470;9.894;2022-11-20T06:15:47;26.85;;;11.00;;
25946;SDS011;13745;51.470;9.894;2022-11-20T06:18:34;23.52;;;11.88;;
25946;SDS011;13745;51.470;9.894;2022-11-20T06:21:21;31.65;;;13.00;;
25946;SDS011;13745;51.470;9.894;2022-11-20T06:24:08;30.77;;;13.93;;
25946;SDS011;13745;51.470;9.894;2022-11-20T06:26:55;28.55;;;12.90;;
25946;SDS011;13745;51.470;9.894;2022-11-20T06:29:40;28.60;;;12.55;;
25946;SDS011;13745;51.470;9.894;2022-11-20T06:32:26;29.35;;;13.45;;
25946;SDS011;13745;51.470;9.894;2022-11-20T06:35:13;26.48;;;12.25;;
25946;SDS011;13745;51.470;9.894;2022-11-20T06:37:59;35.70;;;14.48;;
25946;SDS011;13745;51.470;9.894;2022-11-20T06:40:45;35.00;;;15.57;;
25946;SDS011;13745;51.470;9.894;2022-11-20T06:43:31;32.00;;;14.02;;
25946;SDS011;13745;51.470;9.894;2022-11-20T06:46:17;28.95;;;13.55;;
25946;SDS011;13745;51.470;9.894;2022-11-20T06:49:03;26.83;;;12.35;;
25946;SDS011;13745;51.470;9.894;2022-11-20T06:51:51;29.38;;;13.18;;
25946;SDS011;13745;51.470;9.894;2022-11-20T06:54:37;26.63;;;12.25;;
25946;SDS011;13745;51.470;9.894;2022-11-20T06:57:23;28.23;;;12.90;;
25946;SDS011;13745;51.470;9.894;2022-11-20T07:00:09;29.98;;;13.10;;
25946;SDS011;13745;51.470;9.894;2022-11-20T07:02:56;28.83;;;12.27;;
25946;SDS011;13745;51.470;9.894;2022-11-20T07:05:41;31.15;;;12.73;;
25946;SDS011;13745;51.470;9.894;2022-11-20T07:08:29;31.63;;;13.32;;
25946;SDS011;13745;51.470;9.894;2022-11-20T07:11:15;30.40;;;13.35;;
25946;SDS011;13745;51.470;9.894;2022-11-20T07:14:01;28.67;;;13.00;;
25946;SDS011;13745;51.470;9.894;2022-11-20T07:16:46;27.83;;;11.95;;
25946;SDS011;13745;51.470;9.894;2022-11-20T07:19:32;28.92;;;13.13;;
25946;SDS011;13745;51.470;9.894;2022-11-20T07:22:18;30.30;;;13.25;;
25946;SDS011;13745;51.470;9.894;2022-11-20T07:25:07;29.83;;;13.85;;
25946;SDS011;13745;51.470;9.894;2022-11-20T07:27:56;30.60;;;13.90;;
25946;SDS011;13745;51.470;9.894;2022-11-20T07:30:42;29.88;;;14.02;;
25946;SDS011;13745;51.470;9.894;2022-11-20T07:33:34;32.75;;;13.98;;
25946;SDS011;13745;51.470;9.894;2022-11-20T07:36:20;32.65;;;14.32;;
25946;SDS011;13745;51.470;9.894;2022-11-20T07:39:05;34.83;;;14.85;;
25946;SDS011;13745;51.470;9.894;2022-11-20T07:41:53;29.05;;;13.00;;
25946;SDS011;13745;51.470;9.894;2022-11-20T07:44:38;33.50;;;14.10;;
25946;SDS011;13745;51.470;9.894;2022-11-20T07:47:25;33.95;;;13.88;;
25946;SDS011;13745;51.470;9.894;2022-11-20T07:50:10;29.92;;;12.80;;
25946;SDS011;13745;51.470;9.894;2022-11-20T07:53:00;27.98;;;12.00;;
25946;SDS011;13745;51.470;9.894;2022-11-20T07:55:47;23.27;;;11.05;;
25946;SDS011;13745;51.470;9.894;2022-11-20T07:58:36;29.60;;;12.90;;
25946;SDS011;13745;51.470;9.894;2022-11-20T08:01:21;30.23;;;13.82;;
25946;SDS011;13745;51.470;9.894;2022-11-20T08:04:07;27.77;;;13.77;;
25946;SDS011;13745;51.470;9.894;2022-11-20T08:06:53;23.40;;;10.60;;
25946;SDS011;13745;51.470;9.894;2022-11-20T08:09:39;33.30;;;14.95;;
25946;SDS011;13745;51.470;9.894;2022-11-20T08:12:24;30.40;;;14.05;;
25946;SDS011;13745;51.470;9.894;2022-11-20T08:18:15;25.15;;;10.00;;
25946;SDS011;13745;51.470;9.894;2022-11-20T08:21:01;23.38;;;11.02;;
25946;SDS011;13745;51.470;9.894;2022-11-20T08:23:47;21.52;;;10.32;;
25946;SDS011;13745;51.470;9.894;2022-11-20T08:26:33;24.08;;;11.18;;
25946;SDS011;13745;51.470;9.894;2022-11-20T08:29:19;19.42;;;9.30;;
25946;SDS011;13745;51.470;9.894;2022-11-20T08:32:06;19.23;;;9.32;;
25946;SDS011;13745;51.470;9.894;2022-11-20T08:34:52;20.20;;;9.85;;
25946;SDS011;13745;51.470;9.894;2022-11-20T08:37:37;22.75;;;11.77;;
25946;SDS011;13745;51.470;9.894;2022-11-20T08:40:25;19.23;;;10.48;;
25946;SDS011;13745;51.470;9.894;2022-11-20T08:43:11;23.65;;;11.05;;
25946;SDS011;13745;51.470;9.894;2022-11-20T08:45:57;20.40;;;9.73;;
25946;SDS011;13745;51.470;9.894;2022-11-20T08:48:44;19.05;;;8.90;;
25946;SDS011;13745;51.470;9.894;2022-11-20T08:51:30;19.35;;;9.10;;
25946;SDS011;13745;51.470;9.894;2022-11-20T08:54:17;23.20;;;10.85;;
25946;SDS011;13745;51.470;9.894;2022-11-20T08:57:04;22.13;;;11.10;;
25946;SDS011;13745;51.470;9.894;2022-11-20T08:59:50;17.63;;;10.00;;
25946;SDS011;13745;51.470;9.894;2022-11-20T09:02:36;17.92;;;9.05;;
25946;SDS011;13745;51.470;9.894;2022-11-20T09:05:23;16.67;;;9.40;;
25946;SDS011;13745;51.470;9.894;2022-11-20T09:08:08;13.57;;;8.82;;
25946;SDS011;13745;51.470;9.894;2022-11-20T09:10:55;16.73;;;8.95;;
25946;SDS011;13745;51.470;9.894;2022-11-20T09:13:41;15.85;;;8.90;;
25946;SDS011;13745;51.470;9.894;2022-11-20T09:16:27;16.08;;;9.48;;
25946;SDS011;13745;51.470;9.894;2022-11-20T09:19:13;14.25;;;8.57;;
25946;SDS011;13745;51.470;9.894;2022-11-20T09:22:00;13.75;;;8.43;;
25946;SDS011;13745;51.470;9.894;2022-11-20T09:24:46;13.48;;;8.95;;
25946;SDS011;13745;51.470;9.894;2022-11-20T09:27:31;14.95;;;9.48;;
25946;SDS011;13745;51.470;9.894;2022-11-20T09:30:18;14.63;;;9.30;;
25946;SDS011;13745;51.470;9.894;2022-11-20T09:33:04;13.45;;;8.88;;
25946;SDS011;13745;51.470;9.894;2022-11-20T09:35:50;14.30;;;9.65;;
25946;SDS011;13745;51.470;9.894;2022-11-20T09:38:37;11.88;;;9.18;;
25946;SDS011;13745;51.470;9.894;2022-11-20T09:41:36;12.95;;;9.52;;
25946;SDS011;13745;51.470;9.894;2022-11-20T09:44:39;13.30;;;10.05;;
25946;SDS011;13745;51.470;9.894;2022-11-20T09:47:37;10.75;;;9.15;;
25946;SDS011;13745;51.470;9.894;2022-11-20T09:50:35;11.38;;;8.90;;
25946;SDS011;13745;51.470;9.894;2022-11-20T09:56:20;10.75;;;9.55;;
25946;SDS011;13745;51.470;9.894;2022-11-20T09:59:06;10.50;;;8.88;;
25946;SDS011;13745;51.470;9.894;2022-11-20T10:01:59;12.32;;;9.80;;
25946;SDS011;13745;51.470;9.894;2022-11-20T10:04:48;12.15;;;9.70;;
25946;SDS011;13745;51.470;9.894;2022-11-20T10:07:39;12.52;;;9.98;;
25946;SDS011;13745;51.470;9.894;2022-11-20T10:10:31;10.52;;;9.43;;
25946;SDS011;13745;51.470;9.894;2022-11-20T10:13:26;12.93;;;10.63;;
25946;SDS011;13745;51.470;9.894;2022-11-20T10:16:21;13.25;;;11.05;;
25946;SDS011;13745;51.470;9.894;2022-11-20T10:19:22;13.57;;;11.65;;
25946;SDS011;13745;51.470;9.894;2022-11-20T10:22:26;14.68;;;11.18;;
25946;SDS011;13745;51.470;9.894;2022-11-20T10:25:27;12.95;;;10.95;;
25946;SDS011;13745;51.470;9.894;2022-11-20T10:28:26;14.00;;;12.32;;
25946;SDS011;13745;51.470;9.894;2022-11-20T10:31:24;12.75;;;11.45;;
25946;SDS011;13745;51.470;9.894;2022-11-20T10:34:17;13.88;;;11.73;;
25946;SDS011;13745;51.470;9.894;2022-11-20T10:37:09;12.13;;;10.93;;
25946;SDS011;13745;51.470;9.894;2022-11-20T10:39:59;12.18;;;10.93;;
25946;SDS011;13745;51.470;9.894;2022-11-20T10:42:48;14.32;;;12.23;;
25946;SDS011;13745;51.470;9.894;2022-11-20T10:45:45;12.18;;;10.88;;
25946;SDS011;13745;51.470;9.894;2022-11-20T10:48:36;13.32;;;11.93;;
25946;SDS011;13745;51.470;9.894;2022-11-20T10:51:30;12.38;;;11.15;;
25946;SDS011;13745;51.470;9.894;2022-11-20T10:54:22;15.68;;;11.88;;
25946;SDS011;13745;51.470;9.894;2022-11-20T10:57:19;13.45;;;12.05;;
25946;SDS011;13745;51.470;9.894;2022-11-20T11:00:14;14.80;;;13.40;;
25946;SDS011;13745;51.470;9.894;2022-11-20T11:03:07;12.35;;;11.35;;
25946;SDS011;13745;51.470;9.894;2022-11-20T11:06:07;11.73;;;10.73;;
25946;SDS011;13745;51.470;9.894;2022-11-20T11:08:58;10.85;;;9.88;;
25946;SDS011;13745;51.470;9.894;2022-11-20T11:11:49;14.93;;;13.63;;
25946;SDS011;13745;51.470;9.894;2022-11-20T11:14:41;10.25;;;9.30;;
25946;SDS011;13745;51.470;9.894;2022-11-20T11:17:29;9.52;;;8.73;;
25946;SDS011;13745;51.470;9.894;2022-11-20T11:20:18;9.85;;;8.85;;
25946;SDS011;13745;51.470;9.894;2022-11-20T11:23:10;8.77;;;8.07;;
25946;SDS011;13745;51.470;9.894;2022-11-20T11:26:19;8.38;;;7.68;;
25946;SDS011;13745;51.470;9.894;2022-11-20T11:29:15;8.75;;;7.95;;
25946;SDS011;13745;51.470;9.894;2022-11-20T11:32:04;10.45;;;8.77;;
25946;SDS011;13745;51.470;9.894;2022-11-20T11:35:01;9.30;;;8.45;;
25946;SDS011;13745;51.470;9.894;2022-11-20T11:37:49;8.98;;;8.15;;
25946;SDS011;13745;51.470;9.894;2022-11-20T11:40:39;10.00;;;9.13;;
25946;SDS011;13745;51.470;9.894;2022-11-20T11:43:26;9.38;;;8.57;;
25946;SDS011;13745;51.470;9.894;2022-11-20T11:46:33;8.85;;;8.15;;
25946;SDS011;13745;51.470;9.894;2022-11-20T11:49:20;9.27;;;8.30;;
25946;SDS011;13745;51.470;9.894;2022-11-20T11:52:08;8.15;;;7.35;;
25946;SDS011;13745;51.470;9.894;2022-11-20T11:55:02;9.90;;;9.00;;
25946;SDS011;13745;51.470;9.894;2022-11-20T11:57:49;9.50;;;8.68;;
25946;SDS011;13745;51.470;9.894;2022-11-20T12:00:41;8.50;;;7.70;;
25946;SDS011;13745;51.470;9.894;2022-11-20T12:03:35;7.88;;;7.28;;
25946;SDS011;13745;51.470;9.894;2022-11-20T12:06:22;7.65;;;7.05;;
25946;SDS011;13745;51.470;9.894;2022-11-20T12:09:10;8.63;;;7.47;;
25946;SDS011;13745;51.470;9.894;2022-11-20T12:12:02;10.52;;;8.32;;
25946;SDS011;13745;51.470;9.894;2022-11-20T12:14:54;8.38;;;7.68;;
25946;SDS011;13745;51.470;9.894;2022-11-20T12:17:41;8.50;;;7.70;;
25946;SDS011;13745;51.470;9.894;2022-11-20T12:20:28;8.38;;;7.68;;
25946;SDS011;13745;51.470;9.894;2022-11-20T12:23:17;7.93;;;7.22;;
25946;SDS011;13745;51.470;9.894;2022-11-20T12:26:14;22.33;;;16.20;;
25946;SDS011;13745;51.470;9.894;2022-11-20T12:29:15;10.45;;;9.38;;
25946;SDS011;13745;51.470;9.894;2022-11-20T12:32:26;8.45;;;7.65;;
25946;SDS011;13745;51.470;9.894;2022-11-20T12:35:42;7.70;;;7.00;;
25946;SDS011;13745;51.470;9.894;2022-11-20T12:38:47;6.50;;;5.90;;
25946;SDS011;13745;51.470;9.894;2022-11-20T12:41:50;7.35;;;6.65;;
25946;SDS011;13745;51.470;9.894;2022-11-20T12:45:12;8.25;;;7.45;;
25946;SDS011;13745;51.470;9.894;2022-11-20T12:48:22;7.90;;;7.15;;
25946;SDS011;13745;51.470;9.894;2022-11-20T12:51:32;7.93;;;7.10;;
25946;SDS011;13745;51.470;9.894;2022-11-20T12:54:35;8.52;;;6.57;;
25946;SDS011;13745;51.470;9.894;2022-11-20T12:57:35;8.27;;;7.05;;
25946;SDS011;13745;51.470;9.894;2022-11-20T13:00:33;7.07;;;5.57;;
25946;SDS011;13745;51.470;9.894;2022-11-20T13:03:29;7.28;;;6.53;;
25946;SDS011;13745;51.470;9.894;2022-11-20T13:09:11;7.88;;;7.00;;
25946;SDS011;13745;51.470;9.894;2022-11-20T13:12:01;8.95;;;7.07;;
25946;SDS011;13745;51.470;9.894;2022-11-20T13:14:55;7.85;;;6.15;;
25946;SDS011;13745;51.470;9.894;2022-11-20T13:17:50;8.23;;;6.40;;
25946;SDS011;13745;51.470;9.894;2022-11-20T13:20:43;9.45;;;6.68;;
25946;SDS011;13745;51.470;9.894;2022-11-20T13:23:31;7.43;;;6.55;;
25946;SDS011;13745;51.470;9.894;2022-11-20T13:26:17;12.02;;;6.88;;
25946;SDS011;13745;51.470;9.894;2022-11-20T13:29:08;7.55;;;6.35;;
25946;SDS011;13745;51.470;9.894;2022-11-20T13:32:04;8.93;;;7.00;;
25946;SDS011;13745;51.470;9.894;2022-11-20T13:34:52;7.65;;;6.47;;
25946;SDS011;13745;51.470;9.894;2022-11-20T13:37:39;9.15;;;7.38;;
25946;SDS011;13745;51.470;9.894;2022-11-20T13:40:25;11.52;;;8.13;;
25946;SDS011;13745;51.470;9.894;2022-11-20T13:43:15;12.45;;;7.60;;
25946;SDS011;13745;51.470;9.894;2022-11-20T13:46:07;10.30;;;7.25;;
25946;SDS011;13745;51.470;9.894;2022-11-20T13:48:54;9.38;;;7.70;;
25946;SDS011;13745;51.470;9.894;2022-11-20T13:51:42;10.30;;;7.05;;
25946;SDS011;13745;51.470;9.894;2022-11-20T13:54:44;11.60;;;7.80;;
25946;SDS011;13745;51.470;9.894;2022-11-20T13:57:46;10.40;;;6.53;;
25946;SDS011;13745;51.470;9.894;2022-11-20T14:00:50;10.88;;;7.75;;
25946;SDS011;13745;51.470;9.894;2022-11-20T14:03:40;10.13;;;6.47;;
25946;SDS011;13745;51.470;9.894;2022-11-20T14:06:28;9.70;;;6.80;;
25946;SDS011;13745;51.470;9.894;2022-11-20T14:09:25;10.82;;;6.93;;
25946;SDS011;13745;51.470;9.894;2022-11-20T14:12:14;11.18;;;7.20;;
25946;SDS011;13745;51.470;9.894;2022-11-20T14:15:02;10.40;;;6.53;;
25946;SDS011;13745;51.470;9.894;2022-11-20T14:17:48;11.45;;;6.45;;
25946;SDS011;13745;51.470;9.894;2022-11-20T14:20:34;12.52;;;7.80;;
25946;SDS011;13745;51.470;9.894;2022-11-20T14:23:23;9.68;;;6.05;;
25946;SDS011;13745;51.470;9.894;2022-11-20T14:26:13;14.05;;;6.47;;
25946;SDS011;13745;51.470;9.894;2022-11-20T14:29:04;10.30;;;6.20;;
25946;SDS011;13745;51.470;9.894;2022-11-20T14:31:50;9.07;;;6.68;;
25946;SDS011;13745;51.470;9.894;2022-11-20T14:34:39;12.40;;;7.18;;
25946;SDS011;13745;51.470;9.894;2022-11-20T14:37:27;17.08;;;10.25;;
25946;SDS011;13745;51.470;9.894;2022-11-20T14:40:22;21.02;;;11.45;;
25946;SDS011;13745;51.470;9.894;2022-11-20T14:43:19;12.80;;;8.88;;
25946;SDS011;13745;51.470;9.894;2022-11-20T14:46:07;12.05;;;7.00;;
25946;SDS011;13745;51.470;9.894;2022-11-20T14:48:55;13.45;;;7.70;;
25946;SDS011;13745;51.470;9.894;2022-11-20T14:51:41;19.67;;;9.98;;
25946;SDS011;13745;51.470;9.894;2022-11-20T14:54:29;18.67;;;9.63;;
25946;SDS011;13745;51.470;9.894;2022-11-20T14:57:22;26.15;;;13.07;;
25946;SDS011;13745;51.470;9.894;2022-11-20T15:00:19;14.18;;;6.68;;
25946;SDS011;13745;51.470;9.894;2022-11-20T15:03:13;16.55;;;11.45;;
25946;SDS011;13745;51.470;9.894;2022-11-20T15:06:00;12.93;;;7.85;;
25946;SDS011;13745;51.470;9.894;2022-11-20T15:08:50;10.82;;;7.50;;
25946;SDS011;13745;51.470;9.894;2022-11-20T15:11:36;9.48;;;6.50;;
25946;SDS011;13745;51.470;9.894;2022-11-20T15:14:22;10.75;;;6.53;;
25946;SDS011;13745;51.470;9.894;2022-11-20T15:17:10;11.10;;;7.38;;
25946;SDS011;13745;51.470;9.894;2022-11-20T15:19:56;11.23;;;6.72;;
25946;SDS011;13745;51.470;9.894;2022-11-20T15:22:44;11.05;;;7.03;;
25946;SDS011;13745;51.470;9.894;2022-11-20T15:25:29;11.32;;;6.57;;
25946;SDS011;13745;51.470;9.894;2022-11-20T15:28:16;10.88;;;6.47;;
25946;SDS011;13745;51.470;9.894;2022-11-20T15:31:04;9.98;;;6.60;;
25946;SDS011;13745;51.470;9.894;2022-11-20T15:33:52;13.15;;;7.22;;
25946;SDS011;13745;51.470;9.894;2022-11-20T15:36:38;10.85;;;7.32;;
25946;SDS011;13745;51.470;9.894;2022-11-20T15:39:24;11.93;;;7.45;;
25946;SDS011;13745;51.470;9.894;2022-11-20T15:42:10;14.38;;;8.20;;
25946;SDS011;13745;51.470;9.894;2022-11-20T15:44:55;11.77;;;7.05;;
25946;SDS011;13745;51.470;9.894;2022-11-20T15:47:41;10.60;;;6.97;;
25946;SDS011;13745;51.470;9.894;2022-11-20T15:50:29;12.25;;;6.80;;
25946;SDS011;13745;51.470;9.894;2022-11-20T15:53:20;10.75;;;6.85;;
25946;SDS011;13745;51.470;9.894;2022-11-20T15:56:08;12.60;;;7.45;;
25946;SDS011;13745;51.470;9.894;2022-11-20T15:58:56;12.07;;;7.60;;
25946;SDS011;13745;51.470;9.894;2022-11-20T16:01:42;13.02;;;8.13;;
25946;SDS011;13745;51.470;9.894;2022-11-20T16:04:28;13.15;;;7.38;;
25946;SDS011;13745;51.470;9.894;2022-11-20T16:07:15;13.10;;;7.90;;
25946;SDS011;13745;51.470;9.894;2022-11-20T16:10:01;15.20;;;8.93;;
25946;SDS011;13745;51.470;9.894;2022-11-20T16:12:47;15.40;;;8.68;;
25946;SDS011;13745;51.470;9.894;2022-11-20T16:15:52;14.10;;;8.15;;
25946;SDS011;13745;51.470;9.894;2022-11-20T16:18:42;13.95;;;7.95;;
25946;SDS011;13745;51.470;9.894;2022-11-20T16:21:28;13.63;;;7.78;;
25946;SDS011;13745;51.470;9.894;2022-11-20T16:24:16;16.83;;;9.20;;
25946;SDS011;13745;51.470;9.894;2022-11-20T16:27:02;16.45;;;8.50;;
25946;SDS011;13745;51.470;9.894;2022-11-20T16:29:48;15.02;;;8.40;;
25946;SDS011;13745;51.470;9.894;2022-11-20T16:32:34;15.43;;;7.82;;
25946;SDS011;13745;51.470;9.894;2022-11-20T16:35:19;15.68;;;8.93;;
25946;SDS011;13745;51.470;9.894;2022-11-20T16:38:05;15.13;;;8.00;;
25946;SDS011;13745;51.470;9.894;2022-11-20T16:40:52;15.32;;;7.63;;
25946;SDS011;13745;51.470;9.894;2022-11-20T16:43:45;15.93;;;8.10;;
25946;SDS011;13745;51.470;9.894;2022-11-20T16:46:32;12.88;;;7.65;;
25946;SDS011;13745;51.470;9.894;2022-11-20T16:49:18;12.73;;;7.03;;
25946;SDS011;13745;51.470;9.894;2022-11-20T16:52:04;12.75;;;7.18;;